Time;durP1;ratioP1;P1;durP2;ratioP2;P2;SDS_P1;SDS_P2;PMS_P1;PMS_P2;Temp;Humidity;BMP_temperature;BMP_pressure;BME280_temperature;BME280_humidity;BME280_pressure;Samples;Min_cycle;Max_cycle;Signal;HPM_P1;HPM_P2
2022/07/24 00:01:44;;;;;;;0.40;0.30;;;;;;;24.81;100.00;95457.16;5135686;27;20456;-57
2022/07/24 00:04:14;;;;;;;2.10;0.50;;;;;;;24.82;100.00;95454.06;5135510;27;20427;-57
2022/07/24 00:06:43;;;;;;;0.50;0.30;;;;;;;24.82;100.00;95459.50;5135526;27;20447;-58
2022/07/24 00:09:11;;;;;;;0.60;0.50;;;;;;;24.79;100.00;95451.31;5135020;27;20521;-58
2022/07/24 00:11:39;;;;;;;0.40;0.30;;;;;;;24.49;100.00;95413.06;5134865;27;20470;-56
2022/07/24 00:14:08;;;;;;;2.53;0.53;;;;;;;24.70;100.00;95446.06;5135042;27;20419;-56
2022/07/24 00:16:38;;;;;;;0.40;0.30;;;;;;;24.76;100.00;95457.41;5134759;27;20553;-56
2022/07/24 00:19:06;;;;;;;0.50;0.40;;;;;;;24.82;100.00;95464.16;5135026;27;20427;-56
2022/07/24 00:21:36;;;;;;;0.57;0.40;;;;;;;24.46;100.00;95405.66;5134972;27;20511;-57
2022/07/24 00:24:06;;;;;;;0.50;0.30;;;;;;;24.79;100.00;95460.22;5135164;27;20419;-57
2022/07/24 00:26:34;;;;;;;0.70;0.70;;;;;;;24.76;100.00;95457.41;5134806;27;20896;-57
2022/07/24 00:29:03;;;;;;;0.40;0.40;;;;;;;24.76;97.65;95466.31;5134718;27;20430;-57
2022/07/24 00:31:32;;;;;;;0.50;0.40;;;;;;;24.68;100.00;95469.22;5134224;27;20452;-57
2022/07/24 00:34:01;;;;;;;0.50;0.40;;;;;;;24.68;100.00;95461.88;5134630;27;20466;-57
2022/07/24 00:36:29;;;;;;;0.50;0.30;;;;;;;24.68;100.00;95471.94;5134010;27;21096;-57
2022/07/24 00:38:59;;;;;;;0.50;0.40;;;;;;;24.64;100.00;95467.22;5134426;27;20852;-57
2022/07/24 00:41:28;;;;;;;0.60;0.50;;;;;;;24.59;100.00;95469.44;5134585;27;20431;-57
2022/07/24 00:44:04;;;;;;;0.40;0.30;;;;;;;24.49;100.00;95473.47;5134364;27;20450;-58
2022/07/24 00:46:34;;;;;;;0.40;0.30;;;;;;;24.50;100.00;95468.84;5134421;27;20779;-56
2022/07/24 00:49:05;;;;;;;0.40;0.20;;;;;;;24.48;99.41;95468.41;5134482;27;20434;-57
2022/07/24 00:51:48;;;;;;;0.60;0.40;;;;;;;24.43;100.00;95466.78;5134338;27;20464;-56
2022/07/24 00:54:19;;;;;;;0.40;0.30;;;;;;;24.39;100.00;95462.38;5134431;27;20461;-56
2022/07/24 00:56:50;;;;;;;0.50;0.30;;;;;;;24.12;100.00;95419.97;5134068;27;20426;-56
2022/07/24 00:59:20;;;;;;;0.50;0.30;;;;;;;23.86;100.00;95394.22;5133918;27;20988;-56
2022/07/24 01:01:49;;;;;;;0.60;0.40;;;;;;;24.29;100.00;95468.34;5133733;27;21005;-57
2022/07/24 01:04:18;;;;;;;1.50;0.83;;;;;;;24.25;100.00;95468.28;5133783;27;20890;-57
2022/07/24 01:06:48;;;;;;;0.50;0.33;;;;;;;24.25;99.49;95470.22;5134422;27;20430;-57
2022/07/24 01:09:18;;;;;;;0.60;0.40;;;;;;;24.22;98.30;95469.00;5133943;27;20521;-57
2022/07/24 01:11:47;;;;;;;0.60;0.60;;;;;;;24.15;100.00;95451.78;5133961;27;20464;-57
2022/07/24 01:14:17;;;;;;;0.57;0.30;;;;;;;24.18;100.00;95461.91;5133873;27;20888;-57
2022/07/24 01:16:45;;;;;;;0.60;0.40;;;;;;;24.15;100.00;95454.50;5133764;27;20570;-57
2022/07/24 01:19:14;;;;;;;0.40;0.20;;;;;;;23.76;99.15;95407.50;5133806;27;20472;-57
2022/07/24 01:21:48;;;;;;;2.57;0.30;;;;;;;23.91;100.00;95441.91;5133439;27;20952;-58
2022/07/24 01:24:17;;;;;;;0.50;0.30;;;;;;;23.07;98.33;95311.50;5133659;27;20434;-57
2022/07/24 01:26:46;;;;;;;0.50;0.40;;;;;;;23.95;99.24;95454.41;5133704;27;20431;-57
2022/07/24 01:29:15;;;;;;;0.40;0.30;;;;;;;23.93;100.00;95451.25;5133504;27;20423;-57
2022/07/24 01:31:44;;;;;;;0.40;0.30;;;;;;;23.91;100.00;95453.53;5133222;27;20458;-57
2022/07/24 01:34:13;;;;;;;1.13;0.40;;;;;;;23.89;100.00;95450.38;5133506;27;20426;-57
2022/07/24 01:36:41;;;;;;;1.77;0.40;;;;;;;23.80;100.00;95455.19;5133625;27;20584;-57
2022/07/24 01:39:12;;;;;;;0.40;0.20;;;;;;;23.80;100.00;95452.50;5133705;27;20505;-57
2022/07/24 01:41:40;;;;;;;0.50;0.37;;;;;;;23.71;100.00;95438.34;5133388;27;20987;-57
2022/07/24 01:44:09;;;;;;;0.50;0.40;;;;;;;23.73;100.00;95441.47;5133405;27;20461;-57
2022/07/24 01:46:37;;;;;;;3.80;1.60;;;;;;;23.59;99.51;95435.72;5133566;27;20922;-57
2022/07/24 01:49:06;;;;;;;0.70;0.70;;;;;;;23.66;100.00;95435.09;5132257;27;20465;-57
2022/07/24 01:51:35;;;;;;;0.40;0.30;;;;;;;23.59;97.11;95438.44;5132628;27;20430;-57
2022/07/24 01:54:04;;;;;;;0.50;0.40;;;;;;;23.63;100.00;95438.53;5132665;27;20523;-57
2022/07/24 01:56:34;;;;;;;0.80;0.63;;;;;;;23.60;100.00;95431.88;5131537;27;20498;-58
2022/07/24 01:59:03;;;;;;;0.50;0.30;;;;;;;23.62;100.00;95437.72;5132611;27;20514;-58
2022/07/24 02:01:35;;;;;;;0.50;0.40;;;;;;;23.40;98.11;95405.09;5132358;27;20868;-57
2022/07/24 02:04:03;;;;;;;0.97;0.80;;;;;;;23.55;94.61;95434.06;5133247;27;20817;-58
2022/07/24 02:06:32;;;;;;;0.50;0.40;;;;;;;23.42;95.65;95427.94;5132538;27;20811;-58
2022/07/24 02:09:00;;;;;;;1.43;0.60;;;;;;;23.19;98.92;95433.13;5132630;27;20465;-55
2022/07/24 02:11:30;;;;;;;0.40;0.30;;;;;;;23.11;98.72;95433.25;5132961;27;20495;-56
2022/07/24 02:14:00;;;;;;;0.50;0.50;;;;;;;23.25;100.00;95420.91;5132796;27;20993;-56
2022/07/24 02:16:28;;;;;;;0.80;0.80;;;;;;;23.40;100.00;95437.53;5132873;27;20462;-56
2022/07/24 02:18:57;;;;;;;0.77;0.77;;;;;;;23.33;100.00;95414.53;5132958;27;20426;-56
2022/07/24 02:21:25;;;;;;;0.40;0.30;;;;;;;23.43;100.00;95428.75;5133092;27;20481;-57
2022/07/24 02:23:54;;;;;;;0.40;0.30;;;;;;;23.45;98.53;95434.59;5132946;27;20475;-57
2022/07/24 02:26:22;;;;;;;0.73;0.57;;;;;;;23.43;99.54;95428.75;5132774;27;20458;-57
2022/07/24 02:28:50;;;;;;;0.50;0.33;;;;;;;23.42;97.57;95433.34;5132639;27;20436;-57
2022/07/24 02:31:20;;;;;;;1.03;1.03;;;;;;;23.45;99.13;95446.19;5132824;28;20426;-57
2022/07/24 02:33:49;;;;;;;1.60;1.23;;;;;;;23.14;97.92;95384.69;5132361;28;20948;-57
2022/07/24 02:36:17;;;;;;;0.60;0.50;;;;;;;23.33;99.66;95428.06;5132450;28;20977;-57
2022/07/24 02:38:46;;;;;;;1.70;1.13;;;;;;;23.23;99.79;95442.09;5132788;28;20427;-57
2022/07/24 02:41:14;;;;;;;0.50;0.40;;;;;;;22.82;100.00;95447.13;5132602;28;20441;-57
2022/07/24 02:43:43;;;;;;;0.50;0.40;;;;;;;22.80;100.00;95446.66;5132504;28;20463;-57
2022/07/24 02:46:11;;;;;;;0.40;0.30;;;;;;;23.03;100.00;95442.31;5132452;28;20431;-57
2022/07/24 02:48:41;;;;;;;0.50;0.30;;;;;;;23.10;100.00;95437.09;5131873;28;20995;-56
2022/07/24 02:51:10;;;;;;;0.60;0.60;;;;;;;23.16;100.00;95439.22;5131869;28;20487;-57
2022/07/24 02:53:38;;;;;;;1.47;0.30;;;;;;;23.09;100.00;95419.31;5131636;28;20486;-57
2022/07/24 02:56:08;;;;;;;0.50;0.37;;;;;;;22.95;100.00;95444.03;5132420;28;20466;-57
2022/07/24 02:58:36;;;;;;;0.40;0.30;;;;;;;22.94;100.00;95438.97;5132701;28;20501;-57
2022/07/24 03:01:06;;;;;;;0.40;0.30;;;;;;;22.99;100.00;95439.53;5134545;27;20426;-56
2022/07/24 03:03:34;;;;;;;0.60;0.47;;;;;;;22.55;100.00;95441.31;5136329;27;20441;-56
2022/07/24 03:06:04;;;;;;;0.50;0.50;;;;;;;22.72;100.00;95443.78;5136639;27;20452;-56
2022/07/24 03:08:33;;;;;;;0.50;0.30;;;;;;;22.83;100.00;95446.00;5135594;27;20473;-57
2022/07/24 03:11:01;;;;;;;0.40;0.30;;;;;;;22.87;100.00;95450.34;5136261;27;20510;-57
2022/07/24 03:13:30;;;;;;;0.40;0.30;;;;;;;22.92;100.00;95460.16;5136560;27;20501;-56
2022/07/24 03:15:58;;;;;;;0.40;0.30;;;;;;;22.92;100.00;95450.13;5134725;27;20508;-56
2022/07/24 03:18:26;;;;;;;0.40;0.30;;;;;;;22.92;100.00;95450.13;5119075;27;21035;-57
2022/07/24 03:20:55;;;;;;;0.60;0.50;;;;;;;22.90;100.00;95454.28;5115633;28;20486;-56
2022/07/24 03:23:25;;;;;;;0.60;0.30;;;;;;;22.47;100.00;95449.53;5123197;27;20478;-57
2022/07/24 03:25:54;;;;;;;1.00;0.90;;;;;;;22.63;100.00;95445.84;5130557;27;20521;-58
2022/07/24 03:28:22;;;;;;;0.50;0.30;;;;;;;22.78;100.00;95447.03;5115219;28;20415;-57
2022/07/24 03:30:51;;;;;;;0.50;0.33;;;;;;;22.86;100.00;95438.00;5115133;28;20522;-57
2022/07/24 03:33:19;;;;;;;0.60;0.50;;;;;;;22.91;100.00;95448.56;5114891;28;20547;-57
2022/07/24 03:35:48;;;;;;;0.50;0.30;;;;;;;22.96;100.00;95456.41;5115206;28;20470;-58
2022/07/24 03:38:16;;;;;;;0.60;0.50;;;;;;;22.94;100.00;95447.88;5115243;28;20462;-58
2022/07/24 03:40:46;;;;;;;0.60;0.40;;;;;;;22.93;100.00;95443.59;5115135;28;20519;-58
2022/07/24 03:43:14;;;;;;;0.40;0.20;;;;;;;22.96;100.00;95445.59;5115420;28;20448;-58
2022/07/24 03:45:43;;;;;;;0.60;0.60;;;;;;;22.98;100.00;95453.38;5114971;28;20514;-58
2022/07/24 03:48:12;;;;;;;0.50;0.30;;;;;;;22.97;100.00;95452.56;5115008;28;20960;-58
2022/07/24 03:50:40;;;;;;;0.50;0.30;;;;;;;23.00;100.00;95456.50;5115293;28;20435;-58
2022/07/24 03:53:09;;;;;;;0.70;0.53;;;;;;;22.99;99.43;95450.34;5114971;28;20419;-57
2022/07/24 03:55:39;;;;;;;0.50;0.40;;;;;;;22.98;99.45;95453.38;5114297;28;20475;-58
2022/07/24 03:58:09;;;;;;;0.40;0.40;;;;;;;23.06;100.00;95455.13;5114442;28;20499;-57
2022/07/24 04:00:37;;;;;;;0.43;0.37;;;;;;;23.06;100.00;95444.31;5117131;27;20462;-58
2022/07/24 04:03:06;;;;;;;0.50;0.30;;;;;;;22.98;98.76;95458.78;5133794;27;20450;-57
2022/07/24 04:05:34;;;;;;;0.60;0.60;;;;;;;23.10;99.46;95458.72;5121572;27;20551;-58
2022/07/24 04:08:09;;;;;;;0.60;0.30;;;;;;;22.91;100.00;95415.34;5131210;27;20445;-58
2022/07/24 04:10:38;;;;;;;0.50;0.40;;;;;;;23.14;99.94;95451.50;5134838;27;20965;-58
2022/07/24 04:13:07;;;;;;;0.87;0.87;;;;;;;23.13;98.03;95450.72;5133697;27;20921;-58
2022/07/24 04:15:37;;;;;;;0.50;0.50;;;;;;;23.16;97.89;95454.63;5134659;27;20473;-58
2022/07/24 04:18:05;;;;;;;0.50;0.50;;;;;;;23.15;96.06;95448.44;5134119;27;20559;-58
2022/07/24 04:20:34;;;;;;;2.60;1.43;;;;;;;23.21;96.22;95446.28;5133632;27;20479;-58
2022/07/24 04:23:02;;;;;;;0.40;0.30;;;;;;;23.30;97.79;95453.09;5134526;27;20526;-57
2022/07/24 04:25:30;;;;;;;0.83;0.60;;;;;;;23.38;95.99;95465.72;5134549;27;20525;-58
2022/07/24 04:27:59;;;;;;;0.53;0.53;;;;;;;23.42;94.97;95463.13;5134378;27;20521;-57
2022/07/24 04:30:27;;;;;;;0.73;0.73;;;;;;;23.55;93.95;95453.00;5134452;27;20466;-57
2022/07/24 04:32:57;;;;;;;0.60;0.30;;;;;;;23.61;93.84;95457.78;5134449;27;20431;-57
2022/07/24 04:35:26;;;;;;;0.70;0.70;;;;;;;23.32;90.91;95458.97;5134023;27;20461;-57
2022/07/24 04:37:54;;;;;;;0.90;0.60;;;;;;;23.40;95.56;95459.19;5134259;27;20903;-57
2022/07/24 04:40:23;;;;;;;0.70;0.63;;;;;;;23.45;97.91;95462.44;5134202;27;20437;-57
2022/07/24 04:42:51;;;;;;;0.40;0.30;;;;;;;23.57;97.84;95465.06;5134288;27;20470;-57
2022/07/24 04:45:19;;;;;;;0.97;0.97;;;;;;;23.38;97.67;95464.91;5133783;27;20471;-57
2022/07/24 04:47:48;;;;;;;0.50;0.33;;;;;;;23.29;100.00;95456.94;5134617;27;20414;-57
2022/07/24 04:50:18;;;;;;;0.50;0.47;;;;;;;22.98;100.00;95464.19;5133948;27;20460;-57
2022/07/24 04:52:46;;;;;;;1.27;0.40;;;;;;;23.18;100.00;95463.19;5132657;27;20470;-57
2022/07/24 04:55:15;;;;;;;1.00;0.53;;;;;;;22.89;100.00;95398.69;5133845;27;20889;-57
2022/07/24 04:57:44;;;;;;;0.63;0.63;;;;;;;23.59;99.30;95468.19;5133438;27;20520;-57
2022/07/24 05:00:14;;;;;;;2.33;1.43;;;;;;;23.65;96.80;95460.59;5132330;27;20571;-57
2022/07/24 05:02:43;;;;;;;0.50;0.40;;;;;;;23.34;99.91;95461.31;5127226;27;20470;-57
2022/07/24 05:05:12;;;;;;;0.50;0.40;;;;;;;22.89;98.57;95428.41;5125342;27;20574;-57
2022/07/24 05:07:41;;;;;;;2.73;1.33;;;;;;;23.19;99.19;95460.16;5112847;28;21069;-57
2022/07/24 05:10:10;;;;;;;1.03;0.97;;;;;;;22.79;97.77;95428.91;5113096;28;20434;-56
2022/07/24 05:12:38;;;;;;;3.70;0.70;;;;;;;22.97;96.38;95462.63;5113245;28;20420;-57
2022/07/24 05:15:08;;;;;;;1.43;1.33;;;;;;;23.39;98.46;95463.81;5113463;28;20518;-57
2022/07/24 05:17:38;;;;;;;1.27;0.57;;;;;;;23.01;93.04;95453.47;5113448;27;20532;-57
2022/07/24 05:20:07;;;;;;;0.70;0.70;;;;;;;23.11;93.51;95457.59;5112793;28;20443;-57
2022/07/24 05:22:36;;;;;;;2.60;0.90;;;;;;;22.96;91.25;95461.84;5112755;28;20502;-57
2022/07/24 05:25:07;;;;;;;3.27;1.03;;;;;;;23.18;85.67;95461.28;5113081;28;20431;-57
2022/07/24 05:27:36;;;;;;;0.57;0.40;;;;;;;23.41;87.43;95445.28;5112975;28;20933;-57
2022/07/24 05:30:06;;;;;;;1.50;1.37;;;;;;;23.32;82.75;95447.34;5113196;28;20812;-57
2022/07/24 05:32:35;;;;;;;0.63;0.63;;;;;;;23.01;82.07;95404.03;5112309;28;21138;-57
2022/07/24 05:35:04;;;;;;;1.03;0.60;;;;;;;23.59;85.87;95457.38;5112712;28;20459;-57
2022/07/24 05:37:32;;;;;;;3.40;0.57;;;;;;;22.68;86.98;95315.91;5112971;28;20495;-57
2022/07/24 05:40:01;;;;;;;0.63;0.63;;;;;;;23.86;86.69;95456.50;5112695;28;20938;-57
2022/07/24 05:42:30;;;;;;;1.00;0.70;;;;;;;23.54;86.53;95408.91;5112209;28;20455;-57
2022/07/24 05:44:59;;;;;;;2.80;0.90;;;;;;;24.23;84.04;95457.03;5112480;28;20471;-58
2022/07/24 05:47:27;;;;;;;0.50;0.50;;;;;;;24.66;78.68;95456.03;5112356;28;20511;-57
2022/07/24 05:49:56;;;;;;;0.87;0.87;;;;;;;24.90;79.08;95461.22;5119807;27;20455;-57
2022/07/24 05:52:24;;;;;;;0.60;0.40;;;;;;;24.97;78.25;95457.88;5130628;27;20916;-58
2022/07/24 05:54:53;;;;;;;0.40;0.30;;;;;;;24.99;73.36;95394.00;5112349;28;20475;-58
2022/07/24 05:57:21;;;;;;;0.50;0.50;;;;;;;25.35;71.39;95440.78;5112373;28;20495;-57
2022/07/24 05:59:51;;;;;;;0.67;0.47;;;;;;;24.87;69.76;95399.56;5112396;28;21028;-58
2022/07/24 06:02:19;;;;;;;1.27;0.57;;;;;;;25.43;69.20;95445.16;5128148;27;20442;-58
2022/07/24 06:04:48;;;;;;;3.03;0.60;;;;;;;25.63;68.05;95444.78;5132808;27;20466;-58
2022/07/24 06:07:16;;;;;;;0.80;0.80;;;;;;;25.75;64.20;95446.56;5132709;27;20824;-57
2022/07/24 06:09:45;;;;;;;0.83;0.60;;;;;;;26.21;66.66;95437.22;5131361;27;20541;-59
2022/07/24 06:12:13;;;;;;;0.80;0.80;;;;;;;26.28;63.32;95434.63;5125399;27;20485;-59
2022/07/24 06:14:44;;;;;;;0.80;0.80;;;;;;;25.97;62.13;95434.09;5116180;27;20455;-59
2022/07/24 06:17:14;;;;;;;3.33;0.90;;;;;;;26.15;63.12;95430.56;5125369;27;20482;-60
2022/07/24 06:19:42;;;;;;;1.20;1.13;;;;;;;26.54;64.81;95389.56;5132590;27;20486;-62
2022/07/24 06:22:11;;;;;;;2.50;0.80;;;;;;;26.94;59.51;95422.34;5129864;27;20490;-63
2022/07/24 06:24:39;;;;;;;0.93;0.90;;;;;;;26.74;57.85;95416.22;5129947;27;20451;-62
2022/07/24 06:27:08;;;;;;;0.60;0.50;;;;;;;27.00;57.88;95413.47;5126867;27;20507;-60
2022/07/24 06:29:40;;;;;;;1.67;1.57;;;;;;;27.20;58.66;95407.84;5130165;27;20454;-61
2022/07/24 06:32:08;;;;;;;1.27;1.17;;;;;;;26.92;57.24;95411.81;5129782;28;20415;-60
2022/07/24 06:34:38;;;;;;;0.80;0.63;;;;;;;27.15;56.92;95400.78;5111767;28;20538;-60
2022/07/24 06:37:06;;;;;;;0.97;0.90;;;;;;;27.40;59.62;95404.56;5121582;27;20454;-60
2022/07/24 06:39:35;;;;;;;0.70;0.40;;;;;;;27.65;58.24;95400.13;5119878;27;20518;-60
2022/07/24 06:42:03;;;;;;;0.70;0.70;;;;;;;27.83;54.22;95402.25;5125283;27;20449;-60
2022/07/24 06:44:33;;;;;;;0.90;0.60;;;;;;;28.09;55.57;95396.63;5131282;27;20455;-61
2022/07/24 06:47:01;;;;;;;0.50;0.40;;;;;;;28.30;51.76;95399.50;5126484;27;20522;-61
2022/07/24 06:49:30;;;;;;;0.70;0.60;;;;;;;28.48;53.69;95405.06;5116145;28;20484;-62
2022/07/24 06:51:59;;;;;;;1.13;1.03;;;;;;;28.12;54.54;95398.59;5116818;28;20455;-62
2022/07/24 06:54:28;;;;;;;0.60;0.50;;;;;;;28.56;51.60;95396.53;5116064;28;20422;-62
2022/07/24 06:56:57;;;;;;;1.10;0.80;;;;;;;28.50;53.00;95370.78;5135103;27;20487;-63
2022/07/24 06:59:25;;;;;;;2.53;0.70;;;;;;;29.00;48.58;95387.38;5135451;27;20462;-62
2022/07/24 07:01:54;;;;;;;0.57;0.57;;;;;;;29.22;46.02;95387.09;5135612;27;20487;-62
2022/07/24 07:04:22;;;;;;;0.60;0.53;;;;;;;29.83;46.64;95386.00;5134914;27;20426;-62
2022/07/24 07:06:51;;;;;;;1.50;0.90;;;;;;;30.04;44.05;95383.28;5134050;27;20514;-62
2022/07/24 07:09:21;;;;;;;0.73;0.53;;;;;;;30.24;43.96;95386.38;5134201;27;20482;-63
2022/07/24 07:11:49;;;;;;;0.50;0.50;;;;;;;30.41;44.12;95373.88;5130626;27;20457;-63
2022/07/24 07:14:19;;;;;;;0.50;0.50;;;;;;;30.63;40.35;95378.13;5134021;27;20457;-64
2022/07/24 07:16:48;;;;;;;0.80;0.80;;;;;;;30.78;42.21;95372.19;5134494;27;21006;-63
2022/07/24 07:19:17;;;;;;;0.57;0.40;;;;;;;31.20;43.57;95368.50;5135601;27;20863;-62
2022/07/24 07:21:45;;;;;;;1.90;1.00;;;;;;;30.69;40.66;95373.78;5138111;27;20510;-63
2022/07/24 07:24:14;;;;;;;1.07;0.80;;;;;;;31.14;40.26;95370.09;5138405;27;20446;-62
2022/07/24 07:26:44;;;;;;;0.90;0.90;;;;;;;31.25;40.02;95331.69;5134874;27;20543;-61
2022/07/24 07:29:12;;;;;;;0.47;0.43;;;;;;;31.93;39.24;95341.75;5124933;27;20477;-63
2022/07/24 07:31:41;;;;;;;0.60;0.60;;;;;;;32.06;37.48;95352.22;5124679;27;20894;-60
2022/07/24 07:34:09;;;;;;;2.10;0.87;;;;;;;32.29;36.04;95347.69;5138449;27;20417;-62
2022/07/24 07:36:38;;;;;;;1.13;0.87;;;;;;;31.59;37.47;95345.56;5138911;27;20438;-60
2022/07/24 07:39:06;;;;;;;2.33;0.63;;;;;;;32.07;39.40;95353.81;5138441;27;20514;-61
2022/07/24 07:41:36;;;;;;;0.77;0.77;;;;;;;32.18;36.64;95336.03;5138314;27;20529;-61
2022/07/24 07:44:06;;;;;;;0.53;0.50;;;;;;;32.45;36.97;95350.66;5138902;27;20422;-61
2022/07/24 07:46:38;;;;;;;0.80;0.50;;;;;;;32.76;37.71;95348.00;5137272;27;20910;-62
2022/07/24 07:49:14;;;;;;;0.70;0.70;;;;;;;33.24;36.30;95343.81;5135301;27;20423;-63
2022/07/24 07:51:47;;;;;;;1.03;0.93;;;;;;;32.33;36.04;95347.69;5135920;27;20447;-61
2022/07/24 07:54:17;;;;;;;0.73;0.50;;;;;;;32.86;36.52;95309.44;5135550;27;20427;-61
2022/07/24 07:56:46;;;;;;;1.60;0.60;;;;;;;33.34;36.19;95333.91;5124493;27;20958;-60
2022/07/24 07:59:17;;;;;;;0.90;0.90;;;;;;;33.79;34.87;95329.66;5114407;28;20466;-64
2022/07/24 08:01:45;;;;;;;0.53;0.43;;;;;;;34.17;34.37;95323.94;5114668;28;20983;-62
2022/07/24 08:04:17;;;;;;;1.10;1.00;;;;;;;33.28;34.16;95319.06;5121528;27;20464;-63
2022/07/24 08:06:46;;;;;;;0.60;0.60;;;;;;;33.32;35.11;95330.75;5124514;27;20462;-62
2022/07/24 08:09:15;;;;;;;2.00;0.70;;;;;;;33.08;34.08;95327.19;5112520;27;20460;-62
2022/07/24 08:11:44;;;;;;;0.60;0.50;;;;;;;33.57;36.02;95322.19;5115997;27;20447;-63
2022/07/24 08:14:12;;;;;;;0.80;0.80;;;;;;;33.78;34.09;95324.56;5127260;27;20452;-61
2022/07/24 08:16:42;;;;;;;0.40;0.40;;;;;;;34.58;32.74;95321.59;5128190;27;20516;-63
2022/07/24 08:19:11;;;;;;;0.47;0.40;;;;;;;34.83;33.38;95316.38;5134082;27;20983;-63
2022/07/24 08:21:39;;;;;;;1.00;0.90;;;;;;;33.99;31.83;95312.44;5118323;27;20546;-62
2022/07/24 08:24:08;;;;;;;0.70;0.67;;;;;;;33.80;31.43;95229.47;5122763;27;20538;-61
2022/07/24 08:26:36;;;;;;;0.57;0.57;;;;;;;34.44;30.65;95306.09;5112630;27;20523;-61
2022/07/24 08:29:05;;;;;;;0.50;0.50;;;;;;;34.84;32.80;95317.91;5113674;28;20482;-62
2022/07/24 08:31:34;;;;;;;1.63;0.60;;;;;;;34.92;31.84;95305.53;5123043;27;20457;-63
2022/07/24 08:34:04;;;;;;;0.93;0.93;;;;;;;34.83;31.46;95310.88;5126883;27;20516;-62
2022/07/24 08:36:33;;;;;;;0.80;0.80;;;;;;;35.01;30.86;95297.50;5123112;27;20461;-63
2022/07/24 08:39:02;;;;;;;1.23;0.87;;;;;;;35.22;31.98;95301.00;5117870;27;20478;-61
2022/07/24 08:41:38;;;;;;;0.53;0.50;;;;;;;35.35;30.75;95299.09;5133701;27;20530;-63
2022/07/24 08:44:06;;;;;;;0.60;0.50;;;;;;;35.09;30.88;95285.13;5131720;27;20448;-63
2022/07/24 08:46:38;;;;;;;2.80;0.80;;;;;;;35.04;30.10;95293.13;5127334;27;20514;-62
2022/07/24 08:49:13;;;;;;;0.60;0.50;;;;;;;35.57;31.46;95280.91;5121306;27;20515;-63
2022/07/24 08:51:44;;;;;;;0.80;0.80;;;;;;;35.96;30.03;95290.94;5125169;27;20502;-62
2022/07/24 08:54:12;;;;;;;0.53;0.50;;;;;;;35.53;30.38;95244.34;5133954;27;20196;-62
2022/07/24 08:56:44;;;;;;;0.43;0.43;;;;;;;35.65;29.72;95282.25;5134057;27;20205;-62
2022/07/24 08:59:23;;;;;;;0.80;0.80;;;;;;;36.16;29.82;95270.31;5133220;27;20349;-62
2022/07/24 09:01:54;;;;;;;0.97;0.97;;;;;;;36.23;27.07;95283.16;5133268;27;20196;-62
2022/07/24 09:04:35;;;;;;;0.67;0.67;;;;;;;36.46;28.08;95273.84;5134071;27;20275;-61
2022/07/24 09:07:06;;;;;;;3.03;0.77;;;;;;;36.30;27.36;95187.13;5128678;27;20515;-61
2022/07/24 09:09:36;;;;;;;0.60;0.60;;;;;;;36.87;25.93;95255.28;5121690;27;20197;-61
2022/07/24 09:12:07;;;;;;;0.40;0.40;;;;;;;36.83;26.60;95270.41;5126700;27;20626;-64
2022/07/24 09:14:39;;;;;;;0.83;0.47;;;;;;;37.40;26.85;95270.25;5126532;27;20272;-62
2022/07/24 09:17:10;;;;;;;0.67;0.57;;;;;;;37.52;26.44;95263.94;5124903;27;20318;-61
2022/07/24 09:19:54;;;;;;;0.40;0.40;;;;;;;37.23;26.23;95262.50;5122044;27;20243;-61
2022/07/24 09:22:28;;;;;;;1.53;1.33;;;;;;;36.01;27.31;95031.84;5113096;28;20184;-62
2022/07/24 09:25:14;;;;;;;0.73;0.73;;;;;;;37.83;28.32;95255.03;5113011;28;20279;-60
2022/07/24 09:27:48;;;;;;;0.43;0.43;;;;;;;37.92;25.64;95252.38;5113111;28;20532;-62
2022/07/24 09:30:26;;;;;;;0.53;0.53;;;;;;;37.61;25.87;95230.06;5113175;28;20220;-61
2022/07/24 09:32:57;;;;;;;0.63;0.63;;;;;;;37.78;28.99;95250.84;5113234;28;20189;-61
2022/07/24 09:35:38;;;;;;;0.88;0.88;;;;;;;38.29;27.32;95217.44;5112883;28;20241;-61
2022/07/24 09:38:08;;;;;;;0.60;0.43;;;;;;;38.60;26.04;95238.47;5112992;28;20271;-60
2022/07/24 09:40:38;;;;;;;0.40;0.30;;;;;;;38.35;28.85;95188.78;5124800;27;20751;-62
2022/07/24 09:43:31;;;;;;;0.73;0.73;;;;;;;38.40;27.20;95235.28;5128151;27;20283;-60
2022/07/24 09:46:06;;;;;;;0.82;0.52;;;;;;;38.66;27.19;95231.09;5111871;27;20196;-62
2022/07/24 09:48:36;;;;;;;1.27;0.40;;;;;;;38.28;28.03;95236.06;5111248;28;20193;-61
2022/07/24 09:51:14;;;;;;;0.32;0.32;;;;;;;38.26;29.85;95221.13;5122538;27;20241;-61
2022/07/24 09:53:44;;;;;;;0.50;0.50;;;;;;;38.39;29.65;95219.88;5119962;27;20284;-61
2022/07/24 09:56:15;;;;;;;2.38;0.93;;;;;;;38.14;30.62;95208.88;5131692;27;20654;-61
2022/07/24 09:58:51;;;;;;;1.08;0.45;;;;;;;38.68;30.12;95208.50;5118626;27;20231;-61
2022/07/24 10:01:22;;;;;;;0.60;0.60;;;;;;;38.58;29.97;95157.03;5124614;27;20207;-61
2022/07/24 10:03:52;;;;;;;2.97;1.40;;;;;;;38.88;30.36;95206.16;5133156;27;20206;-61
2022/07/24 10:06:26;;;;;;;0.30;0.30;;;;;;;39.12;30.03;95200.84;5120812;27;20663;-62
2022/07/24 10:08:56;;;;;;;0.40;0.40;;;;;;;39.63;29.77;95190.88;5131769;27;20199;-62
2022/07/24 10:11:25;;;;;;;10.90;0.57;;;;;;;39.34;30.23;95196.78;5128508;27;20214;-61
2022/07/24 10:13:54;;;;;;;0.50;0.40;;;;;;;39.20;30.29;95180.75;5120039;27;20200;-62
2022/07/24 10:16:30;;;;;;;1.08;0.77;;;;;;;39.10;31.09;95186.69;5127593;27;20238;-61
2022/07/24 10:19:00;;;;;;;9.90;0.77;;;;;;;39.49;31.77;95185.13;5122476;27;20199;-61
2022/07/24 10:21:32;;;;;;;0.45;0.45;;;;;;;39.60;28.53;95171.56;5129813;27;20212;-61
2022/07/24 10:24:17;;;;;;;1.20;1.20;;;;;;;39.20;29.46;95174.41;5125421;27;20238;-60
2022/07/24 10:26:48;;;;;;;0.68;0.68;;;;;;;38.95;29.83;95180.16;5131098;27;20216;-60
2022/07/24 10:29:19;;;;;;;0.80;0.80;;;;;;;39.40;29.36;95174.78;5131864;27;20188;-60
2022/07/24 10:31:48;;;;;;;0.93;0.93;;;;;;;40.26;29.04;95169.91;5131610;27;20275;-60
2022/07/24 10:34:34;;;;;;;1.02;0.70;;;;;;;40.34;28.41;95162.78;5131656;28;20220;-60
2022/07/24 10:37:14;;;;;;;0.60;0.60;;;;;;;40.64;27.40;95161.81;5127669;28;20276;-60
2022/07/24 10:39:52;;;;;;;0.40;0.40;;;;;;;41.28;27.56;95153.22;5129216;28;20214;-60
2022/07/24 10:42:21;;;;;;;0.50;0.50;;;;;;;41.71;26.66;95155.44;5129334;28;20259;-60
2022/07/24 10:45:17;;;;;;;0.80;0.40;;;;;;;41.03;30.33;95154.44;5129383;28;20265;-60
2022/07/24 10:47:46;;;;;;;0.60;0.60;;;;;;;41.00;29.88;95105.31;5128461;28;20188;-59
2022/07/24 10:50:16;;;;;;;4.13;0.80;;;;;;;41.10;29.46;95149.28;5129275;28;20792;-59
2022/07/24 10:52:46;;;;;;;0.30;0.30;;;;;;;41.67;29.77;95138.88;5132093;28;20185;-55
2022/07/24 10:55:23;;;;;;;1.65;0.95;;;;;;;41.86;28.73;95136.75;5132499;28;20180;-55
2022/07/24 10:58:04;;;;;;;0.50;0.40;;;;;;;42.30;28.56;95129.25;5132444;28;20662;-55
2022/07/24 11:00:35;;;;;;;0.65;0.60;;;;;;;42.22;29.02;95130.13;5132035;28;20213;-57
2022/07/24 11:03:09;;;;;;;0.40;0.40;;;;;;;42.18;29.09;95108.00;5132105;28;20183;-55
2022/07/24 11:05:39;;;;;;;0.40;0.40;;;;;;;42.16;29.24;95127.22;5131469;28;20243;-55
2022/07/24 11:08:39;;;;;;;0.63;0.63;;;;;;;41.75;30.18;95122.63;5132433;28;20642;-55
2022/07/24 11:11:13;;;;;;;0.55;0.55;;;;;;;42.36;29.30;95116.19;5132085;28;20650;-55
2022/07/24 11:13:51;;;;;;;2.05;1.58;;;;;;;42.40;29.77;95116.75;5132452;28;20226;-55
2022/07/24 11:16:25;;;;;;;0.70;0.70;;;;;;;42.61;30.10;95091.78;5132395;28;20272;-55
2022/07/24 11:19:31;;;;;;;0.32;0.28;;;;;;;42.95;28.52;95102.97;5132812;28;20215;-56
2022/07/24 11:22:08;;;;;;;1.08;0.95;;;;;;;41.76;28.30;95090.75;5134659;27;20311;-55
2022/07/24 11:24:55;;;;;;;0.50;0.50;;;;;;;41.03;30.10;95094.03;5135462;27;20265;-55
2022/07/24 11:27:23;;;;;;;4.70;0.60;;;;;;;41.63;28.82;95104.91;5134658;27;20280;-56
2022/07/24 11:29:54;;;;;;;5.40;0.60;;;;;;;41.62;26.67;95089.44;5134927;27;20231;-56
2022/07/24 11:32:22;;;;;;;7.00;1.40;;;;;;;41.74;26.20;95093.25;5136144;27;20194;-55
2022/07/24 11:34:52;;;;;;;0.60;0.60;;;;;;;42.34;23.63;95090.81;5134971;27;20189;-55
2022/07/24 11:37:24;;;;;;;0.43;0.43;;;;;;;43.16;24.88;95087.03;5136087;27;20631;-54
2022/07/24 11:39:54;;;;;;;0.52;0.52;;;;;;;42.13;24.74;95082.84;5135750;27;20580;-56
2022/07/24 11:42:23;;;;;;;0.68;0.68;;;;;;;42.68;23.91;95083.81;5135449;27;20651;-56
2022/07/24 11:44:51;;;;;;;0.60;0.60;;;;;;;41.33;22.94;95094.16;5135551;27;20196;-55
2022/07/24 11:47:21;;;;;;;0.70;0.70;;;;;;;41.83;23.23;95082.03;5135960;27;20289;-56